createdAt,value
2023-05-16T00:03:26.689Z,10.90
2023-05-16T00:05:58.394Z,10.50
2023-05-16T00:08:28.854Z,9.60
2023-05-16T00:10:58.901Z,9.50
2023-05-16T00:13:31.111Z,9.90
2023-05-16T00:16:02.987Z,9.10
2023-05-16T00:18:32.905Z,9.60
2023-05-16T00:21:02.933Z,10.30
2023-05-16T00:23:33.821Z,9.90
2023-05-16T00:26:04.584Z,9.40
2023-05-16T00:28:34.246Z,9.90
2023-05-16T00:31:06.838Z,11.40
2023-05-16T00:33:36.904Z,10.60
2023-05-16T00:36:07.132Z,10.60
2023-05-16T00:38:37.860Z,9.50
2023-05-16T00:41:11.146Z,11.70
2023-05-16T00:43:41.075Z,11.70
2023-05-16T00:46:11.193Z,11.90
2023-05-16T00:48:42.595Z,11.90
2023-05-16T00:51:14.901Z,11.90
2023-05-16T00:53:45.133Z,11.50
2023-05-16T00:56:21.809Z,10.60
2023-05-16T00:58:52.236Z,10.70
2023-05-16T01:01:25.407Z,11.30
2023-05-16T01:03:58.882Z,10.00
2023-05-16T01:06:34.670Z,9.70
2023-05-16T01:09:08.760Z,9.70
2023-05-16T01:11:59.692Z,9.70
2023-05-16T01:15:11.279Z,10.10
2023-05-16T01:18:14.846Z,8.70
2023-05-16T01:20:57.051Z,9.10
2023-05-16T01:23:53.947Z,10.30
2023-05-16T01:26:28.569Z,9.90
2023-05-16T01:29:01.586Z,10.40
2023-05-16T01:31:34.373Z,10.40
2023-05-16T01:34:04.210Z,10.20
2023-05-16T01:36:44.662Z,10.60
2023-05-16T01:39:29.334Z,10.60
2023-05-16T01:42:09.324Z,10.10
2023-05-16T01:44:59.641Z,10.80
2023-05-16T01:47:33.453Z,10.40
2023-05-16T01:50:18.167Z,10.30
2023-05-16T01:52:57.385Z,10.40
2023-05-16T01:55:43.770Z,12.00
2023-05-16T01:58:15.640Z,10.70
2023-05-16T02:03:16.619Z,11.00
2023-05-16T02:05:48.903Z,11.00
2023-05-16T02:08:18.866Z,10.40
2023-05-16T02:10:49.487Z,11.70
2023-05-16T02:13:19.617Z,10.90
2023-05-16T02:15:49.621Z,9.60
2023-05-16T02:18:19.802Z,11.00
2023-05-16T02:20:52.709Z,10.30
2023-05-16T02:23:25.107Z,10.70
2023-05-16T02:25:56.397Z,10.30
2023-05-16T02:28:26.291Z,10.50
2023-05-16T02:31:00.928Z,11.00
2023-05-16T02:33:30.893Z,12.00
2023-05-16T02:36:04.613Z,11.10
2023-05-16T02:38:34.688Z,11.40
2023-05-16T02:41:05.235Z,12.40
2023-05-16T02:43:35.368Z,12.40
2023-05-16T02:46:09.915Z,12.90
2023-05-16T02:48:39.387Z,11.30
2023-05-16T02:51:08.817Z,13.60
2023-05-16T02:53:38.524Z,11.90
2023-05-16T02:56:09.240Z,12.20
2023-05-16T03:01:11.354Z,11.40
2023-05-16T03:03:43.901Z,12.50
2023-05-16T03:06:14.049Z,11.80
2023-05-16T03:08:44.378Z,12.20
2023-05-16T03:11:15.705Z,12.10
2023-05-16T03:13:46.699Z,13.30
2023-05-16T03:16:17.461Z,11.70
2023-05-16T03:18:49.439Z,11.10
2023-05-16T03:21:19.447Z,12.60
2023-05-16T03:23:50.078Z,11.80
2023-05-16T03:26:22.777Z,30.20
2023-05-16T03:28:54.682Z,13.00
2023-05-16T03:31:28.783Z,15.60
2023-05-16T03:34:02.253Z,16.10
2023-05-16T03:36:34.658Z,11.60
2023-05-16T03:39:05.032Z,10.90
2023-05-16T03:41:36.669Z,10.70
2023-05-16T03:44:09.064Z,10.80
2023-05-16T03:46:39.128Z,10.50
2023-05-16T03:49:09.372Z,11.00
2023-05-16T03:51:39.774Z,11.30
2023-05-16T03:54:09.986Z,9.80
2023-05-16T03:56:39.496Z,11.10
2023-05-16T03:59:09.509Z,10.50
2023-05-16T04:01:45.019Z,11.00
2023-05-16T04:04:19.480Z,11.00
2023-05-16T04:07:16.280Z,10.70
2023-05-16T04:09:45.059Z,9.90
2023-05-16T04:12:15.564Z,11.20
2023-05-16T04:14:53.594Z,10.60
2023-05-16T04:17:23.703Z,10.00
2023-05-16T04:19:56.748Z,10.80
2023-05-16T04:22:30.077Z,10.50
2023-05-16T04:25:03.351Z,10.00
2023-05-16T04:27:32.843Z,9.20
2023-05-16T04:30:08.011Z,9.80
2023-05-16T04:32:37.970Z,8.80
2023-05-16T04:35:16.860Z,8.60
2023-05-16T04:37:54.195Z,8.00
2023-05-16T04:40:25.728Z,8.30
2023-05-16T04:42:55.539Z,8.00
2023-05-16T04:45:25.349Z,7.60
2023-05-16T04:47:56.095Z,7.30
2023-05-16T04:50:26.084Z,8.00
2023-05-16T04:52:56.710Z,7.70
2023-05-16T04:55:40.987Z,7.80
2023-05-16T04:58:24.741Z,7.30
2023-05-16T05:01:03.466Z,7.10
2023-05-16T05:03:38.182Z,7.70
2023-05-16T05:06:08.423Z,6.90
2023-05-16T05:08:38.154Z,7.00
2023-05-16T05:11:07.740Z,7.10
2023-05-16T05:13:39.032Z,6.90
2023-05-16T05:16:13.360Z,6.40
2023-05-16T05:18:49.766Z,6.90
2023-05-16T05:21:28.665Z,6.70
2023-05-16T05:24:05.207Z,6.60
2023-05-16T05:26:37.682Z,6.60
2023-05-16T05:29:10.676Z,6.60
2023-05-16T05:32:02.663Z,7.50
2023-05-16T05:34:40.483Z,6.80
2023-05-16T05:37:30.891Z,7.00
2023-05-16T05:40:34.445Z,7.30
2023-05-16T05:43:10.411Z,6.30
2023-05-16T05:45:48.707Z,6.30
2023-05-16T05:48:18.759Z,7.10
2023-05-16T05:50:48.886Z,7.50
2023-05-16T05:53:50.363Z,7.80
2023-05-16T05:56:29.375Z,7.70
2023-05-16T05:59:10.653Z,6.80
2023-05-16T06:01:42.751Z,6.90
2023-05-16T06:04:25.132Z,7.00
2023-05-16T06:07:13.591Z,6.70
2023-05-16T06:10:07.484Z,6.20
2023-05-16T06:13:01.470Z,6.10
2023-05-16T06:15:50.679Z,6.60
2023-05-16T06:18:38.592Z,6.70
2023-05-16T06:21:20.108Z,6.50
2023-05-16T06:24:21.283Z,5.40
2023-05-16T06:27:19.551Z,5.40
2023-05-16T06:30:07.257Z,5.40
2023-05-16T06:32:43.451Z,5.90
2023-05-16T06:35:18.523Z,7.80
2023-05-16T06:37:49.283Z,6.90
2023-05-16T06:40:22.398Z,6.20
2023-05-16T06:43:04.192Z,4.90
2023-05-16T06:45:37.238Z,4.50
2023-05-16T06:48:11.963Z,6.00
2023-05-16T06:50:45.156Z,4.70
2023-05-16T06:53:24.913Z,5.00
2023-05-16T06:55:59.458Z,4.80
2023-05-16T06:58:31.462Z,4.40
2023-05-16T07:01:03.601Z,4.30
2023-05-16T07:03:42.710Z,4.70
2023-05-16T07:06:16.362Z,4.30
2023-05-16T07:08:48.803Z,4.50
2023-05-16T07:11:29.536Z,4.50
2023-05-16T07:14:02.761Z,4.70
2023-05-16T07:16:44.726Z,4.30
2023-05-16T07:19:24.025Z,4.10
2023-05-16T07:22:00.104Z,4.70
2023-05-16T07:24:40.068Z,4.70
2023-05-16T07:27:12.416Z,4.20
2023-05-16T07:29:46.055Z,5.20
2023-05-16T07:32:17.168Z,4.10
2023-05-16T07:34:51.366Z,4.00
2023-05-16T07:37:31.346Z,3.90
2023-05-16T07:40:18.908Z,4.70
2023-05-16T07:42:55.777Z,5.60
2023-05-16T07:45:44.622Z,4.90
2023-05-16T07:49:04.573Z,4.20
2023-05-16T07:51:29.177Z,3.90
2023-05-16T07:54:05.732Z,3.80
2023-05-16T07:56:45.429Z,4.40
2023-05-16T07:59:26.832Z,3.90
2023-05-16T08:02:34.521Z,4.50
2023-05-16T08:05:18.051Z,4.20
2023-05-16T08:08:16.491Z,3.30
2023-05-16T08:11:08.365Z,3.30
2023-05-16T08:13:53.154Z,3.40
2023-05-16T08:16:49.545Z,3.70
2023-05-16T08:19:30.227Z,3.40
2023-05-16T08:22:40.402Z,5.10
2023-05-16T08:25:46.178Z,3.80
2023-05-16T08:28:36.703Z,3.60
2023-05-16T08:32:01.226Z,3.10
2023-05-16T08:36:35.601Z,3.40
2023-05-16T08:40:07.551Z,3.50
2023-05-16T08:43:37.369Z,3.60
2023-05-16T08:46:32.408Z,4.50
2023-05-16T09:15:54.861Z,3.50
2023-05-16T09:19:05.298Z,3.50
2023-05-16T09:22:18.869Z,3.00
2023-05-16T09:25:32.029Z,3.20
2023-05-16T09:28:29.561Z,3.30
2023-05-16T09:31:31.210Z,3.30
2023-05-16T09:34:13.869Z,3.10
2023-05-16T09:36:44.191Z,3.30
2023-05-16T09:39:17.533Z,5.70
2023-05-16T09:41:52.942Z,3.20
2023-05-16T09:44:23.065Z,6.40
2023-05-16T09:47:07.544Z,4.80
2023-05-16T09:49:48.531Z,3.40
2023-05-16T09:52:26.379Z,3.00
2023-05-16T09:55:16.331Z,3.00
2023-05-16T09:58:11.295Z,4.50
2023-05-16T10:01:02.903Z,2.90
2023-05-16T10:03:38.562Z,2.90
2023-05-16T10:06:18.722Z,3.00
2023-05-16T10:08:54.234Z,3.90
2023-05-16T10:11:24.900Z,3.30
2023-05-16T10:14:01.274Z,3.60
2023-05-16T10:16:36.037Z,2.90
2023-05-16T10:19:11.623Z,2.80
2023-05-16T10:21:55.595Z,3.20
2023-05-16T10:25:09.767Z,3.10
2023-05-16T10:27:55.461Z,2.90
2023-05-16T10:30:37.884Z,2.70
2023-05-16T10:33:20.940Z,2.70
2023-05-16T10:35:55.767Z,3.10
2023-05-16T10:38:29.577Z,2.80
2023-05-16T10:41:07.401Z,3.10
2023-05-16T10:43:41.445Z,3.00
2023-05-16T10:46:15.191Z,3.00
2023-05-16T10:48:50.032Z,2.70
2023-05-16T10:51:37.033Z,3.00
2023-05-16T10:55:04.405Z,3.00
2023-05-16T10:57:54.025Z,3.50
2023-05-16T11:00:24.266Z,2.90
2023-05-16T11:03:26.721Z,2.90
2023-05-16T11:06:23.603Z,22.30
2023-05-16T11:09:29.082Z,4.30
2023-05-16T11:12:05.733Z,3.70
2023-05-16T11:14:48.025Z,2.90
2023-05-16T11:17:39.976Z,3.30
2023-05-16T11:20:34.692Z,2.90
2023-05-16T11:23:26.982Z,2.90
2023-05-16T11:26:11.195Z,3.20
2023-05-16T11:28:49.522Z,2.70
2023-05-16T11:31:58.675Z,2.80
2023-05-16T11:34:45.814Z,3.30
2023-05-16T11:38:01.279Z,2.60
2023-05-16T11:40:46.366Z,3.80
2023-05-16T11:43:33.876Z,3.00
2023-05-16T11:46:17.794Z,2.90
2023-05-16T11:48:57.593Z,3.80
2023-05-16T11:51:35.675Z,2.90
2023-05-16T11:54:10.035Z,3.60
2023-05-16T11:56:43.126Z,3.00
2023-05-16T11:59:23.641Z,3.10
2023-05-16T12:02:06.402Z,3.30
2023-05-16T12:04:48.193Z,3.10
2023-05-16T12:07:23.548Z,3.50
2023-05-16T12:10:08.994Z,2.80
2023-05-16T12:12:59.184Z,2.10
2023-05-16T12:15:42.104Z,2.90
2023-05-16T12:18:43.363Z,2.20
2023-05-16T12:21:24.803Z,2.50
2023-05-16T12:24:18.461Z,2.80
2023-05-16T12:27:12.550Z,3.00
2023-05-16T12:29:51.453Z,2.70
2023-05-16T12:36:00.169Z,2.70
2023-05-16T12:39:00.194Z,3.10
2023-05-16T12:42:41.478Z,3.10
2023-05-16T12:45:35.533Z,2.80
2023-05-16T12:48:15.254Z,3.10
2023-05-16T12:50:51.584Z,3.00
2023-05-16T12:56:54.546Z,3.40
2023-05-16T12:59:34.889Z,3.00
2023-05-16T13:02:17.890Z,2.60
2023-05-16T13:05:06.223Z,3.40
2023-05-16T13:07:42.280Z,2.80
2023-05-16T13:10:22.360Z,3.70
2023-05-16T13:13:01.184Z,3.20
2023-05-16T13:15:59.316Z,2.90
2023-05-16T13:19:36.563Z,7.40
2023-05-16T13:22:20.700Z,5.30
2023-05-16T13:25:15.613Z,3.90
2023-05-16T13:28:12.232Z,3.70
2023-05-16T13:34:32.342Z,2.90
2023-05-16T13:37:13.479Z,4.30
2023-05-16T13:40:01.108Z,3.50
2023-05-16T13:42:40.715Z,3.70
2023-05-16T13:45:26.639Z,4.10
2023-05-16T13:48:16.852Z,3.30
2023-05-16T13:50:52.276Z,3.60
2023-05-16T13:53:26.034Z,3.70
2023-05-16T13:56:05.865Z,3.70
2023-05-16T13:59:02.027Z,4.10
2023-05-16T14:01:38.090Z,3.60
2023-05-16T14:04:15.652Z,4.00
2023-05-16T14:06:58.549Z,3.80
2023-05-16T14:09:39.484Z,3.60
2023-05-16T14:12:11.497Z,3.90
2023-05-16T14:15:02.588Z,4.20
2023-05-16T14:17:52.301Z,4.90
2023-05-16T14:20:28.045Z,3.80
2023-05-16T14:23:09.346Z,3.40
2023-05-16T14:25:59.220Z,3.60
2023-05-16T14:28:49.429Z,4.50
2023-05-16T14:31:21.658Z,4.00
2023-05-16T14:33:52.711Z,4.60
2023-05-16T14:36:36.956Z,5.10
2023-05-16T14:39:08.744Z,4.10
2023-05-16T14:41:45.503Z,4.70
2023-05-16T14:44:22.473Z,4.60
2023-05-16T14:47:09.637Z,5.80
2023-05-16T14:49:43.172Z,4.80
2023-05-16T14:52:38.573Z,4.80
2023-05-16T14:55:16.293Z,5.60
2023-05-16T14:58:41.211Z,5.70
2023-05-16T15:01:20.308Z,8.20
2023-05-16T15:04:08.877Z,8.30
2023-05-16T15:06:43.048Z,9.20
2023-05-16T15:09:23.564Z,9.80
2023-05-16T15:11:55.949Z,9.80
2023-05-16T15:14:29.114Z,9.70
2023-05-16T15:17:01.717Z,10.00
2023-05-16T15:19:40.612Z,10.30
2023-05-16T15:22:24.656Z,12.20
2023-05-16T15:25:12.522Z,11.30
2023-05-16T15:27:52.582Z,11.20
2023-05-16T15:30:29.583Z,11.60
2023-05-16T15:32:59.101Z,11.40
2023-05-16T15:35:30.576Z,11.50
2023-05-16T15:38:12.363Z,11.90
2023-05-16T15:41:06.080Z,12.00
2023-05-16T15:44:35.522Z,14.20
2023-05-16T15:47:40.455Z,16.70
2023-05-16T15:50:20.610Z,18.00
2023-05-16T15:52:58.653Z,17.20
2023-05-16T15:55:39.154Z,17.50
2023-05-16T15:58:25.910Z,18.30
2023-05-16T16:01:23.943Z,18.70
2023-05-16T16:04:26.035Z,20.60
2023-05-16T16:09:16.277Z,20.00
2023-05-16T16:11:18.366Z,19.60
2023-05-16T16:14:10.299Z,22.90
2023-05-16T16:17:17.227Z,21.40
2023-05-16T16:24:35.743Z,19.00
2023-05-16T16:30:41.865Z,17.80
2023-05-16T16:33:53.644Z,16.60
2023-05-16T16:36:24.491Z,18.00
2023-05-16T16:50:31.542Z,18.30
2023-05-16T16:53:16.697Z,19.80
2023-05-16T16:56:02.734Z,18.30
2023-05-16T16:59:11.382Z,18.00
2023-05-16T17:01:51.051Z,18.50
2023-05-16T17:05:49.769Z,18.40
2023-05-16T17:08:25.242Z,19.00
2023-05-16T17:11:01.162Z,20.00
2023-05-16T17:13:42.266Z,19.70
2023-05-16T17:16:29.905Z,20.10
2023-05-16T17:19:00.512Z,18.40
2023-05-16T17:21:56.483Z,19.90
2023-05-16T17:24:33.252Z,20.20
2023-05-16T17:27:27.452Z,19.70
2023-05-16T17:32:50.175Z,19.10
2023-05-16T17:35:25.309Z,22.20
2023-05-16T17:38:03.943Z,22.60
2023-05-16T17:40:52.895Z,22.50
2023-05-16T17:43:29.322Z,21.90
2023-05-16T17:46:08.878Z,23.40
2023-05-16T17:48:49.977Z,24.50
2023-05-16T17:51:23.272Z,25.00
2023-05-16T17:54:08.024Z,26.20
2023-05-16T17:56:48.734Z,26.40
2023-05-16T17:59:20.120Z,25.80
2023-05-16T18:01:50.219Z,22.50
2023-05-16T18:04:24.456Z,21.80
2023-05-16T18:07:05.870Z,21.90
2023-05-16T18:09:43.922Z,22.30
2023-05-16T18:12:14.840Z,21.30
2023-05-16T18:14:45.768Z,22.30
2023-05-16T18:17:16.607Z,20.60
2023-05-16T18:19:47.675Z,22.20
2023-05-16T18:22:27.469Z,20.60
2023-05-16T18:25:41.554Z,20.60
2023-05-16T18:28:33.492Z,20.00
2023-05-16T18:31:06.837Z,21.30
2023-05-16T18:33:37.372Z,22.30
2023-05-16T18:36:11.027Z,24.10
2023-05-16T18:38:51.866Z,22.60
2023-05-16T18:41:30.818Z,22.20
2023-05-16T18:44:13.977Z,33.80
2023-05-16T18:46:51.673Z,32.30
2023-05-16T18:49:29.801Z,22.40
2023-05-16T18:52:07.870Z,23.90
2023-05-16T18:54:40.290Z,21.80
2023-05-16T18:58:31.633Z,23.40
2023-05-16T19:03:10.053Z,21.90
2023-05-16T19:06:03.397Z,21.90
2023-05-16T19:09:15.145Z,22.80
2023-05-16T19:12:51.948Z,23.80
2023-05-16T19:15:40.510Z,23.90
2023-05-16T19:18:13.364Z,48.70
2023-05-16T19:24:07.001Z,25.10
2023-05-16T19:27:44.186Z,25.30
2023-05-16T19:30:22.711Z,31.30
2023-05-16T19:32:55.939Z,27.40
2023-05-16T19:35:32.128Z,25.80
2023-05-16T19:38:05.931Z,25.00
2023-05-16T19:40:47.207Z,24.30
2023-05-16T19:43:41.238Z,25.30
2023-05-16T19:46:14.906Z,24.50
2023-05-16T19:48:46.595Z,26.40
2023-05-16T19:51:33.186Z,54.60
2023-05-16T19:54:45.687Z,26.20
2023-05-16T20:01:50.516Z,41.50
2023-05-16T20:05:30.365Z,26.10
2023-05-16T20:16:28.901Z,23.70
2023-05-16T20:19:01.130Z,23.20
2023-05-16T20:22:12.631Z,22.40
2023-05-16T20:25:12.164Z,22.60
2023-05-16T20:27:51.747Z,27.00
2023-05-16T20:30:48.823Z,55.50
2023-05-16T20:33:21.499Z,29.80
2023-05-16T20:35:52.416Z,24.90
2023-05-16T20:38:28.268Z,24.80
2023-05-16T20:41:02.144Z,24.00
2023-05-16T20:43:35.744Z,23.10
2023-05-16T20:46:06.453Z,26.50
2023-05-16T20:48:39.855Z,25.80
2023-05-16T20:51:13.950Z,25.70
2023-05-16T20:53:52.794Z,29.50
2023-05-16T20:56:33.709Z,27.60
2023-05-16T20:59:14.293Z,30.50
2023-05-16T21:01:48.171Z,31.50
2023-05-16T21:04:26.894Z,29.10
2023-05-16T21:07:10.856Z,30.60
2023-05-16T21:10:11.007Z,28.20
2023-05-16T21:12:55.266Z,29.30
2023-05-16T21:15:42.562Z,27.60
2023-05-16T21:18:27.607Z,29.40
2023-05-16T21:21:00.661Z,28.20
2023-05-16T21:23:34.714Z,29.40
2023-05-16T21:26:11.438Z,28.20
2023-05-16T21:29:02.056Z,28.40
2023-05-16T21:31:52.611Z,28.20
2023-05-16T21:34:23.224Z,29.90
2023-05-16T21:36:54.328Z,29.60
2023-05-16T21:39:26.639Z,28.80
2023-05-16T21:41:56.937Z,28.10
2023-05-16T21:44:32.480Z,29.80
2023-05-16T21:47:02.931Z,28.80
2023-05-16T21:49:52.988Z,28.90
2023-05-16T21:52:23.558Z,27.90
2023-05-16T21:54:56.592Z,27.90
2023-05-16T21:57:30.437Z,26.60
2023-05-16T22:00:09.997Z,23.80
2023-05-16T22:02:45.687Z,25.30
2023-05-16T22:05:24.596Z,24.90
2023-05-16T22:07:54.784Z,23.80
2023-05-16T22:10:25.529Z,23.20
2023-05-16T22:12:55.961Z,21.30
2023-05-16T22:15:36.864Z,22.80
2023-05-16T22:18:24.522Z,22.20
2023-05-16T22:20:55.944Z,22.30
2023-05-16T22:23:26.231Z,22.90
2023-05-16T22:26:03.716Z,22.20
2023-05-16T22:28:34.734Z,19.10
2023-05-16T22:31:04.926Z,15.20
2023-05-16T22:33:37.810Z,15.10
2023-05-16T22:36:08.142Z,15.30
2023-05-16T22:38:38.554Z,14.90
2023-05-16T22:41:13.011Z,15.20
2023-05-16T22:43:45.957Z,14.20
2023-05-16T22:48:49.770Z,15.60
2023-05-16T22:51:24.206Z,15.70
2023-05-16T22:53:55.139Z,16.00
2023-05-16T22:56:36.496Z,15.80
2023-05-16T22:59:11.910Z,15.60
2023-05-16T23:01:44.010Z,17.10
2023-05-16T23:04:14.515Z,15.90
2023-05-16T23:06:49.796Z,15.00
2023-05-16T23:09:31.384Z,16.50
2023-05-16T23:12:02.332Z,15.80
2023-05-16T23:14:32.435Z,15.70
2023-05-16T23:17:05.939Z,15.40
2023-05-16T23:19:39.411Z,15.40
2023-05-16T23:22:09.901Z,16.00
2023-05-16T23:24:43.024Z,15.70
2023-05-16T23:27:17.357Z,15.00
2023-05-16T23:29:49.748Z,13.60
2023-05-16T23:34:52.142Z,14.00
2023-05-16T23:37:24.875Z,13.40
2023-05-16T23:39:57.851Z,12.90
2023-05-16T23:42:30.699Z,13.50
2023-05-16T23:45:08.693Z,13.00
2023-05-16T23:47:42.552Z,13.30
2023-05-16T23:50:21.609Z,13.30
2023-05-16T23:52:52.058Z,13.70
2023-05-16T23:55:22.440Z,13.60
2023-05-16T23:57:53.227Z,13.10
